sensor_id;sensor_type;location;lat;lon;timestamp;P1;durP1;ratioP1;P2;durP2;ratioP2
28802;SDS011;15949;55.656;37.422;2023-03-29T00:03:31;10.05;;;7.97;;
28802;SDS011;15949;55.656;37.422;2023-03-29T00:08:38;10.23;;;7.70;;
28802;SDS011;15949;55.656;37.422;2023-03-29T00:13:44;12.70;;;7.97;;
28802;SDS011;15949;55.656;37.422;2023-03-29T00:18:50;11.98;;;8.15;;
28802;SDS011;15949;55.656;37.422;2023-03-29T00:23:56;10.23;;;7.40;;
28802;SDS011;15949;55.656;37.422;2023-03-29T00:29:02;9.25;;;6.97;;
28802;SDS011;15949;55.656;37.422;2023-03-29T00:34:08;10.10;;;7.25;;
28802;SDS011;15949;55.656;37.422;2023-03-29T00:39:13;10.98;;;7.00;;
28802;SDS011;15949;55.656;37.422;2023-03-29T00:50:01;8.20;;;6.53;;
28802;SDS011;15949;55.656;37.422;2023-03-29T00:55:12;9.13;;;6.97;;
28802;SDS011;15949;55.656;37.422;2023-03-29T01:00:21;8.55;;;6.65;;
28802;SDS011;15949;55.656;37.422;2023-03-29T01:05:35;12.60;;;6.22;;
28802;SDS011;15949;55.656;37.422;2023-03-29T01:10:46;10.10;;;6.80;;
28802;SDS011;15949;55.656;37.422;2023-03-29T01:15:57;9.35;;;6.80;;
28802;SDS011;15949;55.656;37.422;2023-03-29T01:31:21;7.07;;;5.55;;
28802;SDS011;15949;55.656;37.422;2023-03-29T01:36:42;10.15;;;6.03;;
28802;SDS011;15949;55.656;37.422;2023-03-29T01:47:07;8.43;;;5.70;;
28802;SDS011;15949;55.656;37.422;2023-03-29T01:52:18;11.13;;;5.80;;
28802;SDS011;15949;55.656;37.422;2023-03-29T01:57:29;8.15;;;5.88;;
28802;SDS011;15949;55.656;37.422;2023-03-29T02:02:37;6.63;;;5.20;;
28802;SDS011;15949;55.656;37.422;2023-03-29T02:07:46;7.10;;;5.65;;
28802;SDS011;15949;55.656;37.422;2023-03-29T02:12:54;6.60;;;5.40;;
28802;SDS011;15949;55.656;37.422;2023-03-29T02:18:00;8.05;;;5.18;;
28802;SDS011;15949;55.656;37.422;2023-03-29T02:28:13;7.05;;;5.40;;
28802;SDS011;15949;55.656;37.422;2023-03-29T02:33:42;7.25;;;5.43;;
28802;SDS011;15949;55.656;37.422;2023-03-29T02:38:57;6.63;;;5.10;;
28802;SDS011;15949;55.656;37.422;2023-03-29T02:44:04;7.30;;;5.00;;
28802;SDS011;15949;55.656;37.422;2023-03-29T02:49:12;8.48;;;5.40;;
28802;SDS011;15949;55.656;37.422;2023-03-29T02:54:18;8.10;;;5.40;;
28802;SDS011;15949;55.656;37.422;2023-03-29T02:59:26;9.93;;;5.47;;
28802;SDS011;15949;55.656;37.422;2023-03-29T03:04:34;6.05;;;5.25;;
28802;SDS011;15949;55.656;37.422;2023-03-29T03:09:39;8.50;;;5.53;;
28802;SDS011;15949;55.656;37.422;2023-03-29T03:14:45;9.70;;;5.47;;
28802;SDS011;15949;55.656;37.422;2023-03-29T03:19:51;13.60;;;5.72;;
28802;SDS011;15949;55.656;37.422;2023-03-29T03:24:57;7.95;;;5.47;;
28802;SDS011;15949;55.656;37.422;2023-03-29T03:30:03;6.97;;;5.38;;
28802;SDS011;15949;55.656;37.422;2023-03-29T03:35:10;8.82;;;5.30;;
28802;SDS011;15949;55.656;37.422;2023-03-29T03:40:16;10.73;;;5.60;;
28802;SDS011;15949;55.656;37.422;2023-03-29T03:45:22;7.85;;;5.30;;
28802;SDS011;15949;55.656;37.422;2023-03-29T03:50:28;8.52;;;5.30;;
28802;SDS011;15949;55.656;37.422;2023-03-29T03:55:34;9.95;;;5.18;;
28802;SDS011;15949;55.656;37.422;2023-03-29T04:00:40;8.63;;;5.55;;
28802;SDS011;15949;55.656;37.422;2023-03-29T04:05:46;9.48;;;5.25;;
28802;SDS011;15949;55.656;37.422;2023-03-29T04:10:53;8.50;;;5.18;;
28802;SDS011;15949;55.656;37.422;2023-03-29T04:15:59;7.13;;;4.95;;
28802;SDS011;15949;55.656;37.422;2023-03-29T04:21:05;9.02;;;5.03;;
28802;SDS011;15949;55.656;37.422;2023-03-29T04:26:11;5.90;;;4.63;;
28802;SDS011;15949;55.656;37.422;2023-03-29T04:31:17;11.15;;;5.40;;
28802;SDS011;15949;55.656;37.422;2023-03-29T04:36:23;9.45;;;5.13;;
28802;SDS011;15949;55.656;37.422;2023-03-29T04:41:29;8.65;;;5.25;;
28802;SDS011;15949;55.656;37.422;2023-03-29T04:46:36;9.27;;;4.88;;
28802;SDS011;15949;55.656;37.422;2023-03-29T04:51:44;7.13;;;5.00;;
28802;SDS011;15949;55.656;37.422;2023-03-29T04:56:49;7.75;;;4.95;;
28802;SDS011;15949;55.656;37.422;2023-03-29T05:01:57;7.50;;;5.20;;
28802;SDS011;15949;55.656;37.422;2023-03-29T05:07:03;9.13;;;5.40;;
28802;SDS011;15949;55.656;37.422;2023-03-29T05:12:10;7.70;;;5.00;;
28802;SDS011;15949;55.656;37.422;2023-03-29T05:17:16;9.02;;;5.50;;
28802;SDS011;15949;55.656;37.422;2023-03-29T05:22:22;8.93;;;5.50;;
28802;SDS011;15949;55.656;37.422;2023-03-29T05:27:28;8.30;;;5.03;;
28802;SDS011;15949;55.656;37.422;2023-03-29T05:32:36;11.77;;;4.80;;
28802;SDS011;15949;55.656;37.422;2023-03-29T05:37:42;6.53;;;4.80;;
28802;SDS011;15949;55.656;37.422;2023-03-29T05:42:48;8.20;;;4.97;;
28802;SDS011;15949;55.656;37.422;2023-03-29T05:47:54;11.82;;;5.03;;
28802;SDS011;15949;55.656;37.422;2023-03-29T05:53:00;6.25;;;4.40;;
28802;SDS011;15949;55.656;37.422;2023-03-29T05:58:06;9.43;;;4.05;;
28802;SDS011;15949;55.656;37.422;2023-03-29T06:03:13;11.13;;;4.30;;
28802;SDS011;15949;55.656;37.422;2023-03-29T06:08:23;13.30;;;4.35;;
28802;SDS011;15949;55.656;37.422;2023-03-29T06:13:30;6.20;;;3.80;;
28802;SDS011;15949;55.656;37.422;2023-03-29T06:18:38;6.78;;;3.67;;
28802;SDS011;15949;55.656;37.422;2023-03-29T06:23:44;11.55;;;3.85;;
28802;SDS011;15949;55.656;37.422;2023-03-29T06:28:50;8.57;;;3.90;;
28802;SDS011;15949;55.656;37.422;2023-03-29T06:33:56;10.00;;;3.97;;
28802;SDS011;15949;55.656;37.422;2023-03-29T06:39:02;6.97;;;3.55;;
28802;SDS011;15949;55.656;37.422;2023-03-29T06:44:08;5.30;;;3.65;;
28802;SDS011;15949;55.656;37.422;2023-03-29T06:49:14;6.30;;;3.67;;
28802;SDS011;15949;55.656;37.422;2023-03-29T06:54:20;10.50;;;4.10;;
28802;SDS011;15949;55.656;37.422;2023-03-29T06:59:25;9.43;;;4.45;;
28802;SDS011;15949;55.656;37.422;2023-03-29T07:04:31;6.68;;;4.40;;
28802;SDS011;15949;55.656;37.422;2023-03-29T07:09:37;9.93;;;4.65;;
28802;SDS011;15949;55.656;37.422;2023-03-29T07:14:44;10.45;;;4.45;;
28802;SDS011;15949;55.656;37.422;2023-03-29T07:19:50;6.68;;;4.30;;
28802;SDS011;15949;55.656;37.422;2023-03-29T07:24:55;6.43;;;4.60;;
28802;SDS011;15949;55.656;37.422;2023-03-29T07:30:01;8.48;;;5.00;;
28802;SDS011;15949;55.656;37.422;2023-03-29T07:35:07;10.95;;;5.63;;
28802;SDS011;15949;55.656;37.422;2023-03-29T07:40:14;10.13;;;5.97;;
28802;SDS011;15949;55.656;37.422;2023-03-29T07:45:27;10.38;;;5.88;;
28802;SDS011;15949;55.656;37.422;2023-03-29T07:50:33;8.52;;;5.93;;
28802;SDS011;15949;55.656;37.422;2023-03-29T07:55:39;11.10;;;6.47;;
28802;SDS011;15949;55.656;37.422;2023-03-29T08:00:51;9.13;;;5.75;;
28802;SDS011;15949;55.656;37.422;2023-03-29T08:06:00;11.25;;;5.90;;
28802;SDS011;15949;55.656;37.422;2023-03-29T08:11:06;15.27;;;6.22;;
28802;SDS011;15949;55.656;37.422;2023-03-29T08:16:14;9.82;;;5.63;;
28802;SDS011;15949;55.656;37.422;2023-03-29T08:21:19;9.60;;;5.28;;
28802;SDS011;15949;55.656;37.422;2023-03-29T08:26:25;11.95;;;5.10;;
28802;SDS011;15949;55.656;37.422;2023-03-29T08:31:31;7.78;;;4.78;;
28802;SDS011;15949;55.656;37.422;2023-03-29T08:36:37;7.88;;;4.72;;
28802;SDS011;15949;55.656;37.422;2023-03-29T08:47:14;7.53;;;4.68;;
28802;SDS011;15949;55.656;37.422;2023-03-29T08:52:33;7.97;;;4.80;;
28802;SDS011;15949;55.656;37.422;2023-03-29T08:57:46;7.03;;;4.93;;
28802;SDS011;15949;55.656;37.422;2023-03-29T09:02:55;8.18;;;5.30;;
28802;SDS011;15949;55.656;37.422;2023-03-29T09:08:08;8.45;;;5.32;;
28802;SDS011;15949;55.656;37.422;2023-03-29T09:18:51;6.97;;;5.20;;
28802;SDS011;15949;55.656;37.422;2023-03-29T09:29:30;9.80;;;5.65;;
28802;SDS011;15949;55.656;37.422;2023-03-29T09:34:48;9.48;;;5.82;;
28802;SDS011;15949;55.656;37.422;2023-03-29T09:40:14;9.02;;;5.68;;
28802;SDS011;15949;55.656;37.422;2023-03-29T09:45:23;11.23;;;6.75;;
28802;SDS011;15949;55.656;37.422;2023-03-29T09:55:35;10.85;;;6.95;;
28802;SDS011;15949;55.656;37.422;2023-03-29T10:00:44;10.40;;;6.40;;
28802;SDS011;15949;55.656;37.422;2023-03-29T10:05:52;11.73;;;7.10;;
28802;SDS011;15949;55.656;37.422;2023-03-29T10:11:02;11.80;;;6.93;;
28802;SDS011;15949;55.656;37.422;2023-03-29T10:16:17;12.30;;;7.20;;
28802;SDS011;15949;55.656;37.422;2023-03-29T10:21:24;8.82;;;6.32;;
28802;SDS011;15949;55.656;37.422;2023-03-29T10:26:33;7.67;;;6.40;;
28802;SDS011;15949;55.656;37.422;2023-03-29T10:31:43;8.93;;;6.63;;
28802;SDS011;15949;55.656;37.422;2023-03-29T10:37:07;12.15;;;7.70;;
28802;SDS011;15949;55.656;37.422;2023-03-29T10:42:15;10.70;;;7.53;;
28802;SDS011;15949;55.656;37.422;2023-03-29T10:47:23;11.73;;;7.35;;
28802;SDS011;15949;55.656;37.422;2023-03-29T10:52:29;12.55;;;7.25;;
28802;SDS011;15949;55.656;37.422;2023-03-29T10:57:37;10.18;;;7.00;;
28802;SDS011;15949;55.656;37.422;2023-03-29T11:08:23;9.90;;;6.72;;
28802;SDS011;15949;55.656;37.422;2023-03-29T11:24:00;11.18;;;6.93;;
28802;SDS011;15949;55.656;37.422;2023-03-29T11:29:39;10.63;;;7.55;;
28802;SDS011;15949;55.656;37.422;2023-03-29T11:40:03;11.75;;;7.68;;
28802;SDS011;15949;55.656;37.422;2023-03-29T11:45:25;10.90;;;7.38;;
28802;SDS011;15949;55.656;37.422;2023-03-29T11:50:39;10.07;;;6.85;;
28802;SDS011;15949;55.656;37.422;2023-03-29T11:55:59;8.88;;;6.90;;
28802;SDS011;15949;55.656;37.422;2023-03-29T12:01:29;8.75;;;6.20;;
28802;SDS011;15949;55.656;37.422;2023-03-29T12:06:40;7.72;;;6.18;;
28802;SDS011;15949;55.656;37.422;2023-03-29T12:11:57;8.52;;;6.30;;
28802;SDS011;15949;55.656;37.422;2023-03-29T12:17:11;10.38;;;6.20;;
28802;SDS011;15949;55.656;37.422;2023-03-29T12:22:22;8.20;;;5.88;;
28802;SDS011;15949;55.656;37.422;2023-03-29T12:27:36;8.48;;;5.68;;
28802;SDS011;15949;55.656;37.422;2023-03-29T12:33:11;7.22;;;5.70;;
28802;SDS011;15949;55.656;37.422;2023-03-29T12:38:21;11.20;;;5.70;;
28802;SDS011;15949;55.656;37.422;2023-03-29T12:43:30;8.20;;;5.60;;
28802;SDS011;15949;55.656;37.422;2023-03-29T12:48:37;9.43;;;5.40;;
28802;SDS011;15949;55.656;37.422;2023-03-29T12:53:49;7.32;;;5.05;;
28802;SDS011;15949;55.656;37.422;2023-03-29T13:09:54;12.32;;;5.15;;
28802;SDS011;15949;55.656;37.422;2023-03-29T13:46:47;7.40;;;5.00;;
28802;SDS011;15949;55.656;37.422;2023-03-29T13:52:11;7.60;;;4.88;;
28802;SDS011;15949;55.656;37.422;2023-03-29T13:57:29;8.50;;;5.40;;
28802;SDS011;15949;55.656;37.422;2023-03-29T14:02:44;9.55;;;5.88;;
28802;SDS011;15949;55.656;37.422;2023-03-29T14:07:53;9.07;;;6.05;;
28802;SDS011;15949;55.656;37.422;2023-03-29T14:13:00;9.77;;;5.88;;
28802;SDS011;15949;55.656;37.422;2023-03-29T14:18:09;9.20;;;5.85;;
28802;SDS011;15949;55.656;37.422;2023-03-29T14:23:18;11.57;;;7.50;;
28802;SDS011;15949;55.656;37.422;2023-03-29T14:28:28;9.27;;;6.65;;
28802;SDS011;15949;55.656;37.422;2023-03-29T14:33:34;8.45;;;6.53;;
28802;SDS011;15949;55.656;37.422;2023-03-29T14:38:43;9.60;;;6.55;;
28802;SDS011;15949;55.656;37.422;2023-03-29T14:43:54;9.70;;;6.60;;
28802;SDS011;15949;55.656;37.422;2023-03-29T14:49:00;9.85;;;6.57;;
28802;SDS011;15949;55.656;37.422;2023-03-29T14:54:06;10.68;;;6.13;;
28802;SDS011;15949;55.656;37.422;2023-03-29T14:59:18;9.15;;;6.30;;
28802;SDS011;15949;55.656;37.422;2023-03-29T15:04:33;8.75;;;6.22;;
28802;SDS011;15949;55.656;37.422;2023-03-29T15:09:40;11.45;;;7.68;;
28802;SDS011;15949;55.656;37.422;2023-03-29T15:14:49;9.95;;;7.00;;
28802;SDS011;15949;55.656;37.422;2023-03-29T15:19:57;9.27;;;6.65;;
28802;SDS011;15949;55.656;37.422;2023-03-29T15:25:14;9.57;;;7.45;;
28802;SDS011;15949;55.656;37.422;2023-03-29T15:30:31;9.90;;;7.43;;
28802;SDS011;15949;55.656;37.422;2023-03-29T15:35:42;10.98;;;7.57;;
28802;SDS011;15949;55.656;37.422;2023-03-29T15:40:52;8.15;;;6.82;;
28802;SDS011;15949;55.656;37.422;2023-03-29T15:45:58;11.57;;;7.63;;
28802;SDS011;15949;55.656;37.422;2023-03-29T15:51:04;11.13;;;8.20;;
28802;SDS011;15949;55.656;37.422;2023-03-29T15:56:13;10.48;;;8.15;;
28802;SDS011;15949;55.656;37.422;2023-03-29T16:06:38;12.77;;;9.05;;
28802;SDS011;15949;55.656;37.422;2023-03-29T16:11:45;12.48;;;9.57;;
28802;SDS011;15949;55.656;37.422;2023-03-29T16:16:51;13.02;;;9.25;;
28802;SDS011;15949;55.656;37.422;2023-03-29T16:21:59;13.57;;;9.77;;
28802;SDS011;15949;55.656;37.422;2023-03-29T16:27:06;14.85;;;10.82;;
28802;SDS011;15949;55.656;37.422;2023-03-29T16:32:12;15.63;;;11.60;;
28802;SDS011;15949;55.656;37.422;2023-03-29T16:37:17;14.75;;;11.60;;
28802;SDS011;15949;55.656;37.422;2023-03-29T16:42:23;15.23;;;12.70;;
28802;SDS011;15949;55.656;37.422;2023-03-29T16:47:28;17.88;;;13.20;;
28802;SDS011;15949;55.656;37.422;2023-03-29T16:52:34;18.30;;;14.00;;
28802;SDS011;15949;55.656;37.422;2023-03-29T16:57:42;19.63;;;14.55;;
28802;SDS011;15949;55.656;37.422;2023-03-29T17:02:47;18.48;;;14.93;;
28802;SDS011;15949;55.656;37.422;2023-03-29T17:07:56;19.42;;;16.38;;
28802;SDS011;15949;55.656;37.422;2023-03-29T17:13:02;24.67;;;16.50;;
28802;SDS011;15949;55.656;37.422;2023-03-29T17:18:07;21.83;;;16.98;;
28802;SDS011;15949;55.656;37.422;2023-03-29T17:23:13;21.73;;;17.15;;
28802;SDS011;15949;55.656;37.422;2023-03-29T17:28:19;30.58;;;18.00;;
28802;SDS011;15949;55.656;37.422;2023-03-29T17:33:25;22.70;;;19.85;;
28802;SDS011;15949;55.656;37.422;2023-03-29T17:38:31;26.77;;;20.27;;
28802;SDS011;15949;55.656;37.422;2023-03-29T17:43:38;28.27;;;20.70;;
28802;SDS011;15949;55.656;37.422;2023-03-29T17:48:44;25.75;;;20.80;;
28802;SDS011;15949;55.656;37.422;2023-03-29T17:53:50;32.00;;;22.05;;
28802;SDS011;15949;55.656;37.422;2023-03-29T17:58:56;28.75;;;20.77;;
28802;SDS011;15949;55.656;37.422;2023-03-29T18:04:02;31.65;;;21.35;;
28802;SDS011;15949;55.656;37.422;2023-03-29T18:09:08;30.52;;;20.45;;
28802;SDS011;15949;55.656;37.422;2023-03-29T18:14:14;27.40;;;20.40;;
28802;SDS011;15949;55.656;37.422;2023-03-29T18:19:20;31.00;;;19.58;;
28802;SDS011;15949;55.656;37.422;2023-03-29T18:24:25;26.30;;;19.42;;
28802;SDS011;15949;55.656;37.422;2023-03-29T18:29:31;28.33;;;20.17;;
28802;SDS011;15949;55.656;37.422;2023-03-29T18:34:37;26.45;;;19.48;;
28802;SDS011;15949;55.656;37.422;2023-03-29T18:39:43;27.17;;;20.10;;
28802;SDS011;15949;55.656;37.422;2023-03-29T18:44:50;29.30;;;19.45;;
28802;SDS011;15949;55.656;37.422;2023-03-29T18:49:55;29.80;;;19.77;;
28802;SDS011;15949;55.656;37.422;2023-03-29T18:55:02;29.40;;;19.55;;
28802;SDS011;15949;55.656;37.422;2023-03-29T19:00:08;28.73;;;19.60;;
28802;SDS011;15949;55.656;37.422;2023-03-29T19:05:16;28.52;;;19.13;;
28802;SDS011;15949;55.656;37.422;2023-03-29T19:10:22;26.05;;;19.13;;
28802;SDS011;15949;55.656;37.422;2023-03-29T19:15:29;21.90;;;17.52;;
28802;SDS011;15949;55.656;37.422;2023-03-29T19:20:36;25.70;;;18.17;;
28802;SDS011;15949;55.656;37.422;2023-03-29T19:25:49;25.80;;;18.58;;
28802;SDS011;15949;55.656;37.422;2023-03-29T19:30:57;25.95;;;18.80;;
28802;SDS011;15949;55.656;37.422;2023-03-29T19:36:04;25.90;;;18.88;;
28802;SDS011;15949;55.656;37.422;2023-03-29T19:41:09;23.83;;;18.42;;
28802;SDS011;15949;55.656;37.422;2023-03-29T19:46:16;26.67;;;17.17;;
28802;SDS011;15949;55.656;37.422;2023-03-29T19:51:22;25.27;;;18.40;;
28802;SDS011;15949;55.656;37.422;2023-03-29T19:56:30;24.92;;;18.48;;
28802;SDS011;15949;55.656;37.422;2023-03-29T20:01:37;23.67;;;18.85;;
28802;SDS011;15949;55.656;37.422;2023-03-29T20:06:46;23.73;;;18.77;;
28802;SDS011;15949;55.656;37.422;2023-03-29T20:11:52;26.75;;;19.70;;
28802;SDS011;15949;55.656;37.422;2023-03-29T20:16:58;28.85;;;20.52;;
28802;SDS011;15949;55.656;37.422;2023-03-29T20:22:04;26.48;;;20.80;;
28802;SDS011;15949;55.656;37.422;2023-03-29T20:27:10;29.55;;;21.88;;
28802;SDS011;15949;55.656;37.422;2023-03-29T20:32:16;32.78;;;23.05;;
28802;SDS011;15949;55.656;37.422;2023-03-29T20:37:21;29.73;;;22.88;;
28802;SDS011;15949;55.656;37.422;2023-03-29T20:42:27;32.40;;;22.83;;
28802;SDS011;15949;55.656;37.422;2023-03-29T20:47:34;33.55;;;25.02;;
28802;SDS011;15949;55.656;37.422;2023-03-29T20:52:46;34.22;;;25.95;;
28802;SDS011;15949;55.656;37.422;2023-03-29T20:57:52;35.97;;;26.88;;
28802;SDS011;15949;55.656;37.422;2023-03-29T21:03:02;36.88;;;26.63;;
28802;SDS011;15949;55.656;37.422;2023-03-29T21:08:08;35.17;;;25.75;;
28802;SDS011;15949;55.656;37.422;2023-03-29T21:13:13;39.45;;;27.55;;
28802;SDS011;15949;55.656;37.422;2023-03-29T21:18:19;39.10;;;27.95;;
28802;SDS011;15949;55.656;37.422;2023-03-29T21:23:25;38.03;;;27.88;;
28802;SDS011;15949;55.656;37.422;2023-03-29T21:28:31;43.42;;;29.08;;
28802;SDS011;15949;55.656;37.422;2023-03-29T21:33:37;42.90;;;29.67;;
28802;SDS011;15949;55.656;37.422;2023-03-29T21:38:42;41.03;;;29.65;;
28802;SDS011;15949;55.656;37.422;2023-03-29T21:43:48;46.00;;;30.77;;
28802;SDS011;15949;55.656;37.422;2023-03-29T21:48:54;45.60;;;30.88;;
28802;SDS011;15949;55.656;37.422;2023-03-29T21:53:59;43.58;;;29.17;;
28802;SDS011;15949;55.656;37.422;2023-03-29T21:59:05;42.33;;;30.50;;
28802;SDS011;15949;55.656;37.422;2023-03-29T22:04:10;42.20;;;30.10;;
28802;SDS011;15949;55.656;37.422;2023-03-29T22:09:16;42.30;;;31.13;;
28802;SDS011;15949;55.656;37.422;2023-03-29T22:14:22;43.05;;;31.45;;
28802;SDS011;15949;55.656;37.422;2023-03-29T22:19:27;48.75;;;32.28;;
28802;SDS011;15949;55.656;37.422;2023-03-29T22:24:33;46.00;;;31.13;;
28802;SDS011;15949;55.656;37.422;2023-03-29T22:29:39;51.03;;;32.53;;
28802;SDS011;15949;55.656;37.422;2023-03-29T22:34:44;47.00;;;30.85;;
28802;SDS011;15949;55.656;37.422;2023-03-29T22:39:50;45.50;;;32.13;;
28802;SDS011;15949;55.656;37.422;2023-03-29T22:44:56;50.10;;;32.60;;
28802;SDS011;15949;55.656;37.422;2023-03-29T22:50:01;50.03;;;32.15;;
28802;SDS011;15949;55.656;37.422;2023-03-29T22:55:08;50.83;;;32.78;;
28802;SDS011;15949;55.656;37.422;2023-03-29T23:00:13;53.90;;;33.25;;
28802;SDS011;15949;55.656;37.422;2023-03-29T23:05:19;55.30;;;34.88;;
28802;SDS011;15949;55.656;37.422;2023-03-29T23:10:25;56.15;;;35.08;;
28802;SDS011;15949;55.656;37.422;2023-03-29T23:15:34;56.13;;;34.50;;
28802;SDS011;15949;55.656;37.422;2023-03-29T23:20:43;53.00;;;33.88;;
28802;SDS011;15949;55.656;37.422;2023-03-29T23:25:51;54.80;;;34.22;;
28802;SDS011;15949;55.656;37.422;2023-03-29T23:36:16;50.33;;;31.83;;
28802;SDS011;15949;55.656;37.422;2023-03-29T23:41:22;52.20;;;33.08;;
28802;SDS011;15949;55.656;37.422;2023-03-29T23:46:32;57.47;;;34.65;;
28802;SDS011;15949;55.656;37.422;2023-03-29T23:51:38;54.60;;;33.25;;
28802;SDS011;15949;55.656;37.422;2023-03-29T23:56:43;51.88;;;33.50;;
